Time;durP1;ratioP1;P1;durP2;ratioP2;P2;SDS_P1;SDS_P2;PMS_P1;PMS_P2;Temp;Humidity;BMP_temperature;BMP_pressure;BME280_temperature;BME280_humidity;BME280_pressure;Samples;Min_cycle;Max_cycle;Signal;HPM_P1;HPM_P2
2023/01/06 00:01:12;;;;;;;2.22;1.95;;;;;;;;;;4972770;28;20118;-74
2023/01/06 00:03:37;;;;;;;2.25;1.95;;;;;;;;;;4972709;28;20030;-74
2023/01/06 00:06:05;;;;;;;1.90;1.67;;;;;;;;;;4973607;28;20035;-74
2023/01/06 00:08:30;;;;;;;1.88;1.60;;;;;;;;;;4970638;28;20119;-75
2023/01/06 00:10:56;;;;;;;2.25;1.73;;;;;;;;;;4974144;28;20454;-76
2023/01/06 00:13:22;;;;;;;2.00;1.77;;;;;;;;;;4976796;28;20023;-75
2023/01/06 00:15:47;;;;;;;1.83;1.50;;;;;;;;;;4975828;28;20031;-75
2023/01/06 00:18:13;;;;;;;20.42;4.82;;;;;;;;;;4973823;28;20023;-77
2023/01/06 00:20:38;;;;;;;13.93;6.35;;;;;;;;;;4977185;28;20041;-77
2023/01/06 00:23:04;;;;;;;3.20;2.28;;;;;;;;;;4970880;28;20453;-74
2023/01/06 00:25:29;;;;;;;2.08;1.70;;;;;;;;;;4972222;28;20378;-74
2023/01/06 00:27:55;;;;;;;2.20;2.00;;;;;;;;;;4972271;28;20501;-75
2023/01/06 00:30:20;;;;;;;2.35;1.98;;;;;;;;;;4972647;28;20054;-75
2023/01/06 00:32:46;;;;;;;2.30;1.33;;;;;;;;;;4972938;28;20035;-74
2023/01/06 00:35:14;;;;;;;1.55;1.40;;;;;;;;;;4967588;28;20105;-76
2023/01/06 00:37:39;;;;;;;1.77;1.40;;;;;;;;;;4972845;28;20170;-74
2023/01/06 00:40:05;;;;;;;3.33;1.35;;;;;;;;;;4982289;28;20083;-75
2023/01/06 00:42:33;;;;;;;1.65;1.15;;;;;;;;;;4965103;28;20493;-76
2023/01/06 00:45:00;;;;;;;1.88;1.55;;;;;;;;;;4967302;28;20121;-75
2023/01/06 00:47:26;;;;;;;1.20;1.10;;;;;;;;;;4969105;28;20031;-75
2023/01/06 00:49:51;;;;;;;2.25;1.55;;;;;;;;;;4968940;28;20364;-75
2023/01/06 00:52:17;;;;;;;1.52;1.42;;;;;;;;;;4968934;28;20118;-77
2023/01/06 00:54:42;;;;;;;1.50;1.40;;;;;;;;;;4969022;28;20046;-75
2023/01/06 00:57:08;;;;;;;1.55;1.30;;;;;;;;;;4966147;28;20110;-75
2023/01/06 00:59:36;;;;;;;1.92;1.30;;;;;;;;;;4971296;28;20031;-76
2023/01/06 01:02:01;;;;;;;3.25;1.50;;;;;;;;;;4970717;28;20026;-75
2023/01/06 01:04:28;;;;;;;3.05;1.70;;;;;;;;;;4969764;28;20379;-76
2023/01/06 01:06:56;;;;;;;2.58;1.50;;;;;;;;;;4969465;28;20521;-74
2023/01/06 01:09:24;;;;;;;2.22;1.20;;;;;;;;;;4964566;28;20057;-75
2023/01/06 01:12:08;;;;;;;3.42;1.50;;;;;;;;;;4978284;28;20030;-76
2023/01/06 01:14:38;;;;;;;2.55;1.20;;;;;;;;;;4969474;28;20390;-76
2023/01/06 01:17:05;;;;;;;1.92;1.30;;;;;;;;;;4972125;28;20022;-74
2023/01/06 01:19:31;;;;;;;3.47;1.30;;;;;;;;;;4989038;28;20046;-75
2023/01/06 01:21:57;;;;;;;1.20;1.10;;;;;;;;;;4966491;28;20042;-76
2023/01/06 01:24:23;;;;;;;1.02;1.02;;;;;;;;;;4975135;28;20500;-76
2023/01/06 01:26:48;;;;;;;1.60;0.70;;;;;;;;;;4963835;28;20082;-75
2023/01/06 01:29:15;;;;;;;1.60;0.90;;;;;;;;;;4976776;28;20027;-75
2023/01/06 01:31:44;;;;;;;0.77;0.77;;;;;;;;;;4975462;28;20029;-75
2023/01/06 01:34:11;;;;;;;0.90;0.90;;;;;;;;;;4976362;28;20034;-76
2023/01/06 01:36:39;;;;;;;1.65;1.00;;;;;;;;;;4975657;28;20390;-75
2023/01/06 01:39:04;;;;;;;0.90;0.90;;;;;;;;;;4974786;28;20104;-74
2023/01/06 01:41:29;;;;;;;1.17;0.90;;;;;;;;;;4976035;28;20134;-76
2023/01/06 01:44:01;;;;;;;1.20;1.00;;;;;;;;;;4974576;28;20023;-76
2023/01/06 01:46:31;;;;;;;1.08;0.98;;;;;;;;;;4970758;28;20050;-75
2023/01/06 01:48:58;;;;;;;;;;;;;;;;;;4974572;28;20073;-75
2023/01/06 01:51:30;;;;;;;1.63;0.80;;;;;;;;;;4970627;28;19929;-75
2023/01/06 01:54:00;;;;;;;0.93;0.82;;;;;;;;;;4974593;28;20031;-74
2023/01/06 01:56:29;;;;;;;1.33;1.00;;;;;;;;;;4973238;28;20448;-76
2023/01/06 01:59:08;;;;;;;1.27;1.13;;;;;;;;;;4970317;28;20019;-75
2023/01/06 02:01:33;;;;;;;0.90;0.90;;;;;;;;;;4967380;28;20644;-75
2023/01/06 02:04:00;;;;;;;1.33;1.05;;;;;;;;;;4973441;28;20174;-76
2023/01/06 02:06:29;;;;;;;2.47;1.10;;;;;;;;;;4972945;28;20049;-76
2023/01/06 02:09:20;;;;;;;1.20;1.10;;;;;;;;;;4966219;28;20473;-76
2023/01/06 02:11:49;;;;;;;1.58;1.48;;;;;;;;;;4967722;28;20026;-75
2023/01/06 02:14:18;;;;;;;1.55;1.27;;;;;;;;;;4974985;28;20425;-76
2023/01/06 02:17:20;;;;;;;1.25;1.10;;;;;;;;;;4973803;28;20035;-75
2023/01/06 02:20:19;;;;;;;2.33;1.40;;;;;;;;;;4973975;28;20052;-76
2023/01/06 02:23:05;;;;;;;1.83;1.27;;;;;;;;;;4973849;28;20482;-76
2023/01/06 02:25:52;;;;;;;3.53;1.15;;;;;;;;;;4973014;28;20030;-75
2023/01/06 02:28:55;;;;;;;1.58;1.20;;;;;;;;;;4969814;28;20050;-76
2023/01/06 02:31:42;;;;;;;1.63;1.15;;;;;;;;;;4970286;28;20046;-75
2023/01/06 02:34:44;;;;;;;1.00;0.90;;;;;;;;;;4974168;28;20401;-75
2023/01/06 02:37:18;;;;;;;1.52;1.30;;;;;;;;;;4972173;28;20106;-74
2023/01/06 02:39:51;;;;;;;2.20;1.20;;;;;;;;;;4972309;28;20102;-75
2023/01/06 02:42:53;;;;;;;2.67;1.10;;;;;;;;;;4966186;28;20061;-75
2023/01/06 02:45:57;;;;;;;1.15;1.00;;;;;;;;;;4989293;28;20041;-76
2023/01/06 02:48:43;;;;;;;1.30;1.08;;;;;;;;;;4961857;28;20048;-76
2023/01/06 02:51:30;;;;;;;1.92;1.40;;;;;;;;;;4968086;28;20030;-75
2023/01/06 02:54:17;;;;;;;0.82;0.82;;;;;;;;;;4972603;28;20027;-75
2023/01/06 02:56:50;;;;;;;1.67;1.17;;;;;;;;;;4965145;28;20498;-75
2023/01/06 02:59:28;;;;;;;1.00;1.00;;;;;;;;;;4971340;28;20054;-76
2023/01/06 03:01:57;;;;;;;1.10;1.00;;;;;;;;;;4969968;28;20030;-75
2023/01/06 03:04:28;;;;;;;1.20;1.10;;;;;;;;;;4969581;28;20031;-76
2023/01/06 03:06:56;;;;;;;2.13;0.90;;;;;;;;;;4972042;28;20085;-75
2023/01/06 03:09:26;;;;;;;2.38;1.10;;;;;;;;;;4972990;28;20089;-76
2023/01/06 03:11:52;;;;;;;0.93;0.93;;;;;;;;;;4973329;28;20037;-75
2023/01/06 03:14:34;;;;;;;1.02;0.90;;;;;;;;;;4969497;28;21455;-75
2023/01/06 03:17:02;;;;;;;1.48;1.00;;;;;;;;;;4971498;28;20062;-76
2023/01/06 03:19:27;;;;;;;1.10;1.00;;;;;;;;;;4965881;28;20114;-75
2023/01/06 03:21:56;;;;;;;0.88;0.85;;;;;;;;;;4988159;28;20075;-75
2023/01/06 03:24:25;;;;;;;1.57;1.30;;;;;;;;;;4972926;28;20089;-75
2023/01/06 03:26:52;;;;;;;1.08;1.08;;;;;;;;;;4971606;28;20353;-76
2023/01/06 03:29:20;;;;;;;1.20;1.10;;;;;;;;;;4972761;28;20397;-76
2023/01/06 03:31:55;;;;;;;2.55;0.90;;;;;;;;;;4972274;28;20030;-76
2023/01/06 03:34:28;;;;;;;1.10;1.00;;;;;;;;;;4972251;28;20027;-76
2023/01/06 03:37:02;;;;;;;1.17;1.08;;;;;;;;;;4968875;28;20027;-78
2023/01/06 03:39:44;;;;;;;1.13;1.02;;;;;;;;;;4972381;28;20113;-76
2023/01/06 03:45:24;;;;;;;1.30;0.90;;;;;;;;;;4968045;28;20034;-75
2023/01/06 03:47:55;;;;;;;1.83;1.00;;;;;;;;;;4972197;28;20452;-76
2023/01/06 03:50:27;;;;;;;1.13;1.02;;;;;;;;;;4983640;28;20069;-74
2023/01/06 03:53:24;;;;;;;2.50;1.27;;;;;;;;;;4972395;28;20031;-74
2023/01/06 03:56:02;;;;;;;3.15;1.10;;;;;;;;;;4971896;28;20033;-78
2023/01/06 03:58:28;;;;;;;1.17;1.02;;;;;;;;;;4969148;28;20034;-75
2023/01/06 04:00:54;;;;;;;1.63;1.00;;;;;;;;;;4969053;28;20027;-75
2023/01/06 04:03:23;;;;;;;1.45;0.80;;;;;;;;;;4971046;28;20031;-75
2023/01/06 04:05:49;;;;;;;1.10;1.00;;;;;;;;;;4971131;28;20034;-75
2023/01/06 04:08:14;;;;;;;1.05;0.98;;;;;;;;;;4969125;28;20516;-76
2023/01/06 04:10:40;;;;;;;1.45;0.90;;;;;;;;;;4971295;28;20112;-75
2023/01/06 04:13:08;;;;;;;1.00;0.88;;;;;;;;;;4972309;28;20022;-76
2023/01/06 04:15:35;;;;;;;2.55;1.05;;;;;;;;;;4970025;28;20518;-76
2023/01/06 04:18:03;;;;;;;3.30;1.00;;;;;;;;;;4970858;28;20093;-76
2023/01/06 04:20:33;;;;;;;1.13;0.90;;;;;;;;;;4971522;28;20057;-76
2023/01/06 04:22:58;;;;;;;0.73;0.65;;;;;;;;;;4970373;28;20029;-76
2023/01/06 04:25:26;;;;;;;1.05;0.63;;;;;;;;;;4970321;28;20474;-75
2023/01/06 04:27:53;;;;;;;2.17;0.63;;;;;;;;;;4971723;28;20114;-75
2023/01/06 04:30:20;;;;;;;0.82;0.73;;;;;;;;;;4969116;28;20030;-75
2023/01/06 04:32:46;;;;;;;0.70;0.70;;;;;;;;;;4970537;28;20114;-75
2023/01/06 04:35:13;;;;;;;1.23;0.82;;;;;;;;;;4970606;28;20109;-76
2023/01/06 04:37:39;;;;;;;1.48;0.93;;;;;;;;;;4966245;28;20027;-75
2023/01/06 04:40:07;;;;;;;0.70;0.70;;;;;;;;;;4960773;28;20462;-75
2023/01/06 04:43:03;;;;;;;1.23;0.70;;;;;;;;;;4969177;28;20030;-75
2023/01/06 04:45:19;;;;;;;2.28;0.95;;;;;;;;;;4967471;28;20081;-76
2023/01/06 04:47:44;;;;;;;1.73;1.00;;;;;;;;;;4959786;28;20034;-73
2023/01/06 04:50:10;;;;;;;0.93;0.88;;;;;;;;;;4958783;28;20414;-76
2023/01/06 04:52:35;;;;;;;1.35;0.77;;;;;;;;;;4964223;28;20022;-75
2023/01/06 04:55:01;;;;;;;1.27;1.02;;;;;;;;;;4962346;28;20031;-76
2023/01/06 04:57:29;;;;;;;1.33;0.95;;;;;;;;;;4963572;28;20088;-75
2023/01/06 04:59:54;;;;;;;1.35;1.10;;;;;;;;;;4970423;28;20023;-75
2023/01/06 05:02:20;;;;;;;1.67;0.80;;;;;;;;;;4964980;28;20030;-76
2023/01/06 05:04:45;;;;;;;0.90;0.90;;;;;;;;;;4970522;28;20042;-76
2023/01/06 05:07:11;;;;;;;1.42;0.90;;;;;;;;;;4970194;28;20201;-75
2023/01/06 05:09:36;;;;;;;1.15;0.85;;;;;;;;;;4971122;28;20031;-76
2023/01/06 05:12:01;;;;;;;1.92;1.00;;;;;;;;;;4971279;28;20158;-76
2023/01/06 05:14:29;;;;;;;1.85;0.93;;;;;;;;;;4970281;28;20389;-75
2023/01/06 05:16:59;;;;;;;2.38;1.00;;;;;;;;;;4970878;28;20042;-76
2023/01/06 05:19:25;;;;;;;0.80;0.80;;;;;;;;;;4971330;28;20015;-76
2023/01/06 05:21:50;;;;;;;1.92;1.15;;;;;;;;;;4970401;28;20076;-77
2023/01/06 05:24:15;;;;;;;1.35;1.25;;;;;;;;;;4971339;28;20022;-75
2023/01/06 05:26:41;;;;;;;1.20;1.10;;;;;;;;;;4970147;28;20081;-75
2023/01/06 05:29:08;;;;;;;1.00;0.90;;;;;;;;;;4968731;28;20125;-74
2023/01/06 05:31:36;;;;;;;1.90;1.38;;;;;;;;;;4966193;28;20030;-75
2023/01/06 05:34:01;;;;;;;2.55;0.93;;;;;;;;;;4970574;28;20050;-77
2023/01/06 05:36:29;;;;;;;0.90;0.70;;;;;;;;;;4970818;28;20045;-76
2023/01/06 05:38:56;;;;;;;3.15;0.98;;;;;;;;;;4965200;28;20085;-75
2023/01/06 05:41:22;;;;;;;0.80;0.80;;;;;;;;;;4971106;28;20026;-76
2023/01/06 05:43:47;;;;;;;0.88;0.80;;;;;;;;;;4970802;28;20047;-74
2023/01/06 05:46:13;;;;;;;0.80;0.75;;;;;;;;;;4970162;28;20031;-76
2023/01/06 05:48:41;;;;;;;0.90;0.70;;;;;;;;;;4971210;28;20031;-76
2023/01/06 05:51:10;;;;;;;0.95;0.82;;;;;;;;;;4981659;28;20023;-75
2023/01/06 05:53:37;;;;;;;0.90;0.90;;;;;;;;;;4967485;28;20080;-75
2023/01/06 05:56:08;;;;;;;2.25;0.80;;;;;;;;;;4970420;28;20038;-74
2023/01/06 05:58:35;;;;;;;1.15;0.70;;;;;;;;;;4971007;28;20474;-75
2023/01/06 06:01:04;;;;;;;1.52;0.80;;;;;;;;;;4969480;28;20543;-75
2023/01/06 06:03:30;;;;;;;1.00;0.80;;;;;;;;;;4970467;28;20035;-75
2023/01/06 06:06:03;;;;;;;1.00;0.85;;;;;;;;;;4969539;28;20061;-75
2023/01/06 06:08:28;;;;;;;2.80;0.70;;;;;;;;;;4972569;28;20093;-75
2023/01/06 06:10:56;;;;;;;0.80;0.80;;;;;;;;;;4975114;28;20438;-76
2023/01/06 06:13:23;;;;;;;1.35;0.93;;;;;;;;;;4974954;28;20031;-74
2023/01/06 06:15:49;;;;;;;2.38;1.05;;;;;;;;;;4979673;28;20035;-76
2023/01/06 06:18:14;;;;;;;1.10;0.90;;;;;;;;;;4973108;28;20521;-76
2023/01/06 06:20:39;;;;;;;2.10;0.80;;;;;;;;;;4975000;28;20105;-76
2023/01/06 06:23:05;;;;;;;0.70;0.70;;;;;;;;;;4976507;28;20023;-75
2023/01/06 06:25:32;;;;;;;2.22;1.00;;;;;;;;;;4974205;28;20037;-76
2023/01/06 06:27:58;;;;;;;1.55;1.10;;;;;;;;;;4974383;28;20109;-76
2023/01/06 06:30:24;;;;;;;1.08;0.98;;;;;;;;;;4974236;28;20106;-75
2023/01/06 06:32:50;;;;;;;0.90;0.88;;;;;;;;;;4973941;28;20026;-76
2023/01/06 06:35:15;;;;;;;1.75;0.77;;;;;;;;;;4973968;28;20027;-75
2023/01/06 06:37:41;;;;;;;1.25;0.90;;;;;;;;;;4965847;28;20023;-76
2023/01/06 06:40:07;;;;;;;0.95;0.95;;;;;;;;;;4974188;28;20022;-76
2023/01/06 06:42:32;;;;;;;1.00;0.90;;;;;;;;;;4972693;28;20412;-75
2023/01/06 06:44:57;;;;;;;1.73;1.02;;;;;;;;;;4963575;28;20026;-75
2023/01/06 06:47:23;;;;;;;1.42;1.00;;;;;;;;;;4972730;28;20027;-76
2023/01/06 06:49:51;;;;;;;0.90;0.88;;;;;;;;;;4974275;28;20027;-77
2023/01/06 06:52:16;;;;;;;1.10;0.80;;;;;;;;;;4971062;28;20386;-75
2023/01/06 06:54:42;;;;;;;0.93;0.68;;;;;;;;;;4974077;28;20032;-76
2023/01/06 06:57:09;;;;;;;4.07;1.88;;;;;;;;;;4969939;28;20027;-76
2023/01/06 06:59:35;;;;;;;2.67;1.63;;;;;;;;;;4974077;28;20034;-77
2023/01/06 07:02:05;;;;;;;2.97;1.80;;;;;;;;;;4974020;28;20041;-75
2023/01/06 07:04:30;;;;;;;8.32;4.00;;;;;;;;;;4976183;28;20023;-75
2023/01/06 07:06:56;;;;;;;10.02;3.22;;;;;;;;;;4976020;28;20077;-76
2023/01/06 07:09:21;;;;;;;8.68;3.28;;;;;;;;;;4976413;28;20062;-76
2023/01/06 07:11:46;;;;;;;6.28;3.03;;;;;;;;;;4977541;28;20030;-77
2023/01/06 07:14:14;;;;;;;2.63;1.95;;;;;;;;;;4973034;28;20057;-76
2023/01/06 07:16:39;;;;;;;2.85;2.08;;;;;;;;;;4973067;28;20027;-75
2023/01/06 07:19:07;;;;;;;2.60;1.90;;;;;;;;;;4971612;28;20442;-75
2023/01/06 07:21:32;;;;;;;2.90;1.95;;;;;;;;;;4986091;28;20462;-74
2023/01/06 07:24:00;;;;;;;3.72;2.30;;;;;;;;;;4968042;28;20105;-75
2023/01/06 07:26:26;;;;;;;4.55;2.17;;;;;;;;;;4974415;28;20061;-76
2023/01/06 07:28:51;;;;;;;4.20;1.95;;;;;;;;;;4973334;28;20058;-75
2023/01/06 07:31:17;;;;;;;3.60;1.67;;;;;;;;;;4973450;28;20031;-75
2023/01/06 07:33:42;;;;;;;2.15;1.80;;;;;;;;;;4971529;28;20034;-75
2023/01/06 07:36:08;;;;;;;2.85;2.00;;;;;;;;;;4968524;28;20035;-75
2023/01/06 07:38:35;;;;;;;2.45;1.95;;;;;;;;;;4969563;28;20116;-76
2023/01/06 07:41:01;;;;;;;3.75;2.10;;;;;;;;;;4971194;28;20117;-74
2023/01/06 07:43:27;;;;;;;6.93;3.08;;;;;;;;;;4971837;28;20546;-76
2023/01/06 07:45:53;;;;;;;9.27;4.05;;;;;;;;;;4970267;28;20047;-76
2023/01/06 07:48:18;;;;;;;9.75;3.83;;;;;;;;;;4970544;28;20048;-77
2023/01/06 07:50:46;;;;;;;6.53;2.55;;;;;;;;;;4972932;28;20050;-76
2023/01/06 07:53:14;;;;;;;4.55;2.55;;;;;;;;;;4960133;28;20057;-76
2023/01/06 07:55:48;;;;;;;19.25;8.02;;;;;;;;;;4971338;28;20491;-77
2023/01/06 07:58:17;;;;;;;9.02;5.00;;;;;;;;;;4972873;28;20026;-77
2023/01/06 08:00:42;;;;;;;4.07;2.47;;;;;;;;;;4968467;28;20557;-76
2023/01/06 08:03:10;;;;;;;6.20;2.35;;;;;;;;;;4971622;28;20118;-77
2023/01/06 08:05:37;;;;;;;6.05;3.50;;;;;;;;;;4969789;28;20402;-74
2023/01/06 08:08:03;;;;;;;11.60;5.25;;;;;;;;;;4969192;28;20030;-75
2023/01/06 08:10:29;;;;;;;22.67;9.88;;;;;;;;;;4969840;28;20029;-76
2023/01/06 08:12:54;;;;;;;17.83;8.15;;;;;;;;;;4970351;28;20118;-77
2023/01/06 08:15:19;;;;;;;12.13;5.95;;;;;;;;;;4967327;28;20083;-76
2023/01/06 08:17:50;;;;;;;8.98;4.82;;;;;;;;;;4964248;28;20138;-76
2023/01/06 08:20:16;;;;;;;5.13;3.55;;;;;;;;;;4963182;28;20034;-75
2023/01/06 08:22:41;;;;;;;3.90;3.50;;;;;;;;;;4963076;28;20101;-75
2023/01/06 08:25:07;;;;;;;3.42;2.90;;;;;;;;;;4969576;28;20023;-77
2023/01/06 08:27:32;;;;;;;2.45;2.03;;;;;;;;;;4970964;28;20027;-77
2023/01/06 08:29:58;;;;;;;1.92;1.80;;;;;;;;;;4971011;28;20030;-77
2023/01/06 08:32:23;;;;;;;3.40;2.03;;;;;;;;;;4972619;28;20466;-76
2023/01/06 08:34:53;;;;;;;10.70;4.75;;;;;;;;;;4968608;28;20047;-77
2023/01/06 08:37:19;;;;;;;5.35;2.67;;;;;;;;;;4970158;28;20011;-77
2023/01/06 08:39:44;;;;;;;3.55;2.63;;;;;;;;;;4967303;28;20516;-76
2023/01/06 08:42:11;;;;;;;2.90;2.60;;;;;;;;;;4970395;28;20015;-77
2023/01/06 08:44:36;;;;;;;6.85;3.53;;;;;;;;;;4968790;28;20223;-77
2023/01/06 08:47:02;;;;;;;8.82;3.28;;;;;;;;;;4969951;28;20577;-76
2023/01/06 08:49:29;;;;;;;12.65;4.85;;;;;;;;;;4971502;28;20033;-77
2023/01/06 08:51:57;;;;;;;13.65;5.55;;;;;;;;;;4967153;28;20381;-75
2023/01/06 08:54:22;;;;;;;11.38;5.25;;;;;;;;;;4969283;28;20454;-76
2023/01/06 08:56:47;;;;;;;14.35;5.38;;;;;;;;;;4970864;28;20082;-76
2023/01/06 08:59:16;;;;;;;8.43;4.40;;;;;;;;;;4970606;28;20098;-76
2023/01/06 09:01:42;;;;;;;5.35;2.80;;;;;;;;;;4986675;28;20075;-77
2023/01/06 09:04:09;;;;;;;3.90;2.60;;;;;;;;;;4970338;28;20031;-75
2023/01/06 09:06:35;;;;;;;3.90;2.67;;;;;;;;;;4963851;28;20031;-75
2023/01/06 09:09:01;;;;;;;7.05;2.50;;;;;;;;;;4966622;28;20030;-77
2023/01/06 09:11:27;;;;;;;3.70;2.40;;;;;;;;;;4983087;28;20375;-76
2023/01/06 09:13:52;;;;;;;4.03;2.50;;;;;;;;;;4971944;28;20037;-78
2023/01/06 09:16:20;;;;;;;2.63;2.00;;;;;;;;;;4989342;28;20031;-76
2023/01/06 09:18:49;;;;;;;1.83;1.58;;;;;;;;;;4966503;28;20118;-78
2023/01/06 09:21:16;;;;;;;2.10;1.80;;;;;;;;;;4977045;28;20047;-76
2023/01/06 09:23:41;;;;;;;2.92;2.30;;;;;;;;;;4966928;28;20030;-78
2023/01/06 09:26:11;;;;;;;4.05;2.30;;;;;;;;;;4962389;28;20354;-77
2023/01/06 09:28:36;;;;;;;4.85;2.47;;;;;;;;;;4966312;28;20473;-75
2023/01/06 09:31:01;;;;;;;1.92;1.73;;;;;;;;;;4966362;28;20038;-77
2023/01/06 09:33:27;;;;;;;1.98;1.77;;;;;;;;;;4970639;28;20034;-77
2023/01/06 09:35:54;;;;;;;6.28;2.42;;;;;;;;;;4960635;28;20303;-77
2023/01/06 09:38:26;;;;;;;2.28;1.98;;;;;;;;;;4967904;28;20014;-75
2023/01/06 09:41:23;;;;;;;1.75;1.65;;;;;;;;;;4967520;28;20023;-76
2023/01/06 09:44:26;;;;;;;3.50;2.35;;;;;;;;;;4968902;28;20035;-75
2023/01/06 09:46:55;;;;;;;1.77;1.65;;;;;;;;;;4972764;28;20454;-75
2023/01/06 09:49:24;;;;;;;3.38;1.90;;;;;;;;;;4988824;28;20023;-74
2023/01/06 09:51:56;;;;;;;2.22;1.90;;;;;;;;;;4973976;28;20031;-75
2023/01/06 09:54:27;;;;;;;2.40;1.70;;;;;;;;;;4972812;28;20046;-75
2023/01/06 09:57:10;;;;;;;2.00;1.80;;;;;;;;;;4971359;28;20113;-76
2023/01/06 09:59:55;;;;;;;3.58;1.95;;;;;;;;;;4974270;28;20031;-75
2023/01/06 10:02:38;;;;;;;3.10;2.00;;;;;;;;;;4968058;28;20089;-75
2023/01/06 10:05:27;;;;;;;2.80;2.50;;;;;;;;;;4974797;28;20027;-76
2023/01/06 10:08:01;;;;;;;6.80;3.35;;;;;;;;;;4972856;28;20035;-76
2023/01/06 10:10:32;;;;;;;2.85;2.20;;;;;;;;;;4970980;28;20117;-76
2023/01/06 10:13:12;;;;;;;1.88;1.70;;;;;;;;;;4968752;28;20077;-75
2023/01/06 10:15:52;;;;;;;6.45;2.50;;;;;;;;;;4969868;28;20030;-76
2023/01/06 10:18:29;;;;;;;3.78;2.53;;;;;;;;;;4969849;28;20524;-76
2023/01/06 10:21:20;;;;;;;2.78;2.47;;;;;;;;;;4988877;28;20113;-76
2023/01/06 10:24:09;;;;;;;2.80;2.00;;;;;;;;;;4988014;28;20031;-74
2023/01/06 10:26:43;;;;;;;2.38;2.17;;;;;;;;;;4973697;28;20038;-74
2023/01/06 10:29:16;;;;;;;9.43;2.53;;;;;;;;;;4987202;28;20055;-76
2023/01/06 10:31:44;;;;;;;2.05;1.80;;;;;;;;;;4970560;28;20094;-76
2023/01/06 10:34:20;;;;;;;3.33;2.00;;;;;;;;;;4971200;28;20019;-76
2023/01/06 10:36:52;;;;;;;2.30;2.10;;;;;;;;;;4968282;28;20031;-75
2023/01/06 10:39:21;;;;;;;3.90;2.33;;;;;;;;;;4963514;28;20034;-75
2023/01/06 10:44:57;;;;;;;3.08;2.13;;;;;;;;;;4967669;28;20035;-76
2023/01/06 10:47:27;;;;;;;2.95;1.90;;;;;;;;;;4969949;28;20093;-76
2023/01/06 10:49:52;;;;;;;3.85;2.60;;;;;;;;;;4971063;28;20055;-74
2023/01/06 10:52:20;;;;;;;3.88;2.17;;;;;;;;;;4971038;28;20057;-75
2023/01/06 10:54:46;;;;;;;2.50;2.30;;;;;;;;;;4972483;28;20122;-76
2023/01/06 10:57:20;;;;;;;5.80;3.25;;;;;;;;;;4972313;28;20109;-76
2023/01/06 11:00:13;;;;;;;4.35;2.45;;;;;;;;;;4971614;28;20035;-76
2023/01/06 11:02:50;;;;;;;3.13;2.20;;;;;;;;;;4970983;28;20030;-76
2023/01/06 11:05:23;;;;;;;4.57;2.20;;;;;;;;;;4961078;28;20053;-77
2023/01/06 11:07:56;;;;;;;3.05;2.42;;;;;;;;;;4972832;28;20058;-76
2023/01/06 11:10:38;;;;;;;3.72;2.78;;;;;;;;;;4973452;28;20023;-76
2023/01/06 11:13:05;;;;;;;3.10;2.10;;;;;;;;;;4970460;28;20033;-75
2023/01/06 11:15:52;;;;;;;2.47;2.08;;;;;;;;;;4965781;28;20387;-76
2023/01/06 11:18:31;;;;;;;1.73;1.63;;;;;;;;;;4972301;28;20113;-75
2023/01/06 11:21:04;;;;;;;4.80;2.17;;;;;;;;;;4965062;28;20078;-75
2023/01/06 11:23:31;;;;;;;2.00;1.83;;;;;;;;;;4972320;28;20420;-75
2023/01/06 11:26:02;;;;;;;2.95;2.38;;;;;;;;;;4972388;28;20019;-76
2023/01/06 11:28:32;;;;;;;3.88;2.25;;;;;;;;;;4983885;28;20031;-75
2023/01/06 11:31:01;;;;;;;1.77;1.67;;;;;;;;;;4966348;28;20042;-75
2023/01/06 11:33:28;;;;;;;3.28;1.77;;;;;;;;;;4972773;28;20377;-75
2023/01/06 11:35:57;;;;;;;2.25;2.00;;;;;;;;;;4972204;28;20030;-75
2023/01/06 11:38:23;;;;;;;2.40;1.92;;;;;;;;;;4967450;28;20030;-76
2023/01/06 11:40:51;;;;;;;1.45;1.35;;;;;;;;;;4970521;28;20034;-76
2023/01/06 11:43:24;;;;;;;2.10;1.40;;;;;;;;;;4970800;28;21401;-77
2023/01/06 11:46:19;;;;;;;2.42;2.13;;;;;;;;;;4972031;28;20454;-75
2023/01/06 11:48:59;;;;;;;1.50;1.40;;;;;;;;;;4984185;28;20044;-75
2023/01/06 11:51:40;;;;;;;1.65;1.40;;;;;;;;;;4987250;28;20085;-75
2023/01/06 11:54:36;;;;;;;2.08;1.38;;;;;;;;;;4970138;28;20035;-75
2023/01/06 11:57:33;;;;;;;2.72;1.70;;;;;;;;;;4969563;28;20117;-76
2023/01/06 12:00:15;;;;;;;1.60;1.50;;;;;;;;;;4962519;28;20233;-76
2023/01/06 12:02:55;;;;;;;3.25;1.63;;;;;;;;;;4978361;28;20030;-75
2023/01/06 12:05:38;;;;;;;;;;;;;;;;;;4967053;28;20449;-75
2023/01/06 12:08:16;;;;;;;1.17;1.08;;;;;;;;;;4971429;28;19921;-75
2023/01/06 12:10:45;;;;;;;1.40;1.30;;;;;;;;;;4970540;28;20019;-75
2023/01/06 12:13:14;;;;;;;1.57;1.33;;;;;;;;;;4970455;28;20041;-75
2023/01/06 12:15:42;;;;;;;1.55;1.20;;;;;;;;;;4972048;28;20270;-77
2023/01/06 12:18:34;;;;;;;2.85;1.85;;;;;;;;;;4969752;28;20030;-77
2023/01/06 12:21:00;;;;;;;1.52;1.20;;;;;;;;;;4966726;28;20066;-77
2023/01/06 12:23:30;;;;;;;1.20;1.00;;;;;;;;;;4970690;28;20023;-77
2023/01/06 12:25:59;;;;;;;1.88;1.55;;;;;;;;;;4972052;28;20082;-79
2023/01/06 12:28:30;;;;;;;2.20;1.83;;;;;;;;;;4972713;28;20505;-77
2023/01/06 12:30:58;;;;;;;3.58;2.65;;;;;;;;;;4970306;28;20031;-78
2023/01/06 12:33:30;;;;;;;3.00;2.00;;;;;;;;;;4969343;28;20030;-78
2023/01/06 12:36:01;;;;;;;3.28;1.70;;;;;;;;;;4970719;28;20037;-77
2023/01/06 12:38:45;;;;;;;8.20;3.67;;;;;;;;;;4971238;28;20505;-77
2023/01/06 12:41:27;;;;;;;3.50;2.00;;;;;;;;;;4969745;28;20035;-78
2023/01/06 12:44:29;;;;;;;2.63;1.67;;;;;;;;;;4970859;28;20031;-76
2023/01/06 12:47:05;;;;;;;2.15;1.40;;;;;;;;;;4966909;28;20207;-76
2023/01/06 12:50:01;;;;;;;2.28;1.27;;;;;;;;;;4970872;28;20113;-76
2023/01/06 12:52:34;;;;;;;2.85;1.85;;;;;;;;;;4949131;28;20031;-76
2023/01/06 12:55:00;;;;;;;1.40;1.30;;;;;;;;;;4971117;28;20030;-75
2023/01/06 12:57:38;;;;;;;1.48;1.10;;;;;;;;;;4970063;28;20042;-74
2023/01/06 13:00:25;;;;;;;1.20;1.10;;;;;;;;;;4971344;28;20534;-75
2023/01/06 13:03:19;;;;;;;1.40;1.00;;;;;;;;;;4984499;28;20038;-77
2023/01/06 13:06:08;;;;;;;1.17;1.10;;;;;;;;;;4968216;28;20109;-76
2023/01/06 13:08:52;;;;;;;1.23;1.13;;;;;;;;;;4971178;28;20417;-74
2023/01/06 13:11:36;;;;;;;3.22;1.40;;;;;;;;;;4970057;28;20421;-75
2023/01/06 13:14:01;;;;;;;5.10;2.05;;;;;;;;;;4971807;28;20023;-75
2023/01/06 13:16:55;;;;;;;1.90;1.30;;;;;;;;;;4970712;28;20496;-76
2023/01/06 13:19:50;;;;;;;2.63;1.83;;;;;;;;;;4972971;28;20025;-76
2023/01/06 13:22:20;;;;;;;2.20;1.23;;;;;;;;;;4982037;28;20031;-76
2023/01/06 13:25:00;;;;;;;1.80;1.60;;;;;;;;;;4971674;28;20456;-76
2023/01/06 13:27:44;;;;;;;3.50;2.53;;;;;;;;;;4969116;28;20031;-76
2023/01/06 13:30:28;;;;;;;3.05;1.20;;;;;;;;;;4972287;28;20030;-76
2023/01/06 13:33:05;;;;;;;1.45;1.33;;;;;;;;;;4971784;28;20386;-76
2023/01/06 13:35:52;;;;;;;2.08;1.10;;;;;;;;;;4967324;28;20031;-75
2023/01/06 13:38:56;;;;;;;1.67;1.10;;;;;;;;;;4989344;28;20027;-74
2023/01/06 13:41:26;;;;;;;1.30;1.20;;;;;;;;;;5000417;28;20022;-76
2023/01/06 13:43:53;;;;;;;;;;;;;;;;;;4988474;28;20038;-75
2023/01/06 13:46:22;;;;;;;1.25;0.90;;;;;;;;;;4972297;28;19918;-77
2023/01/06 13:48:56;;;;;;;3.40;1.80;;;;;;;;;;4968274;28;20039;-74
2023/01/06 13:51:33;;;;;;;2.28;1.33;;;;;;;;;;4985524;28;20026;-76
2023/01/06 13:54:01;;;;;;;4.20;2.10;;;;;;;;;;4973174;28;20023;-75
2023/01/06 13:56:31;;;;;;;4.32;2.50;;;;;;;;;;4986691;28;20065;-75
2023/01/06 13:59:15;;;;;;;;;;;;;;;;;;4984540;28;20093;-75
2023/01/06 14:01:40;;;;;;;3.97;2.00;;;;;;;;;;4969477;28;19918;-75
2023/01/06 14:04:27;;;;;;;5.07;2.53;;;;;;;;;;4970423;28;20026;-75
2023/01/06 14:06:53;;;;;;;1.48;1.10;;;;;;;;;;4969980;28;20023;-75
2023/01/06 14:09:19;;;;;;;2.58;1.80;;;;;;;;;;4971127;28;20027;-76
2023/01/06 14:11:48;;;;;;;2.70;1.88;;;;;;;;;;4987145;28;20034;-75
2023/01/06 14:14:26;;;;;;;3.15;2.03;;;;;;;;;;4972253;28;20081;-76
2023/01/06 14:16:56;;;;;;;3.45;2.30;;;;;;;;;;4970510;28;20041;-75
2023/01/06 14:19:23;;;;;;;3.47;1.80;;;;;;;;;;4984361;28;20025;-76
2023/01/06 14:21:53;;;;;;;3.22;2.00;;;;;;;;;;4963186;28;20035;-76
2023/01/06 14:24:31;;;;;;;1.77;1.15;;;;;;;;;;4971113;28;20035;-76
2023/01/06 14:26:59;;;;;;;3.55;1.60;;;;;;;;;;4971285;28;20085;-75
2023/01/06 14:29:43;;;;;;;3.63;2.30;;;;;;;;;;4974050;28;20019;-75
2023/01/06 14:32:17;;;;;;;6.32;3.72;;;;;;;;;;4974499;28;20031;-76
2023/01/06 14:34:51;;;;;;;5.57;3.22;;;;;;;;;;4971312;28;20114;-76
2023/01/06 14:37:22;;;;;;;6.25;3.13;;;;;;;;;;4973925;28;20062;-75
2023/01/06 14:39:54;;;;;;;4.97;2.60;;;;;;;;;;4974863;28;20042;-76
2023/01/06 14:42:29;;;;;;;1.92;1.40;;;;;;;;;;4974972;28;20102;-76
2023/01/06 14:45:02;;;;;;;7.28;3.45;;;;;;;;;;4973449;28;20483;-75
2023/01/06 14:47:37;;;;;;;7.60;3.30;;;;;;;;;;4973685;28;20097;-76
2023/01/06 14:50:08;;;;;;;1.73;1.40;;;;;;;;;;4973782;28;20023;-75
2023/01/06 14:52:38;;;;;;;7.63;3.45;;;;;;;;;;4974740;28;20038;-75
2023/01/06 14:55:09;;;;;;;3.42;2.13;;;;;;;;;;4974315;28;20058;-75
2023/01/06 14:57:41;;;;;;;2.10;1.63;;;;;;;;;;4973259;28;20037;-76
2023/01/06 15:00:13;;;;;;;2.10;1.48;;;;;;;;;;4969469;28;20019;-76
2023/01/06 15:02:45;;;;;;;3.72;2.40;;;;;;;;;;4973404;28;20018;-76
2023/01/06 15:05:22;;;;;;;2.95;1.85;;;;;;;;;;4968910;28;20034;-76
2023/01/06 15:08:10;;;;;;;7.50;3.50;;;;;;;;;;4973639;28;20243;-76
2023/01/06 15:10:49;;;;;;;5.65;3.22;;;;;;;;;;4980656;28;20027;-75
2023/01/06 15:13:20;;;;;;;3.60;1.98;;;;;;;;;;4970782;28;20026;-76
2023/01/06 15:15:57;;;;;;;3.85;2.03;;;;;;;;;;4971388;28;20113;-75